createdAt,value
2022-12-01T00:00:13.009Z,102312.75
2022-12-01T00:01:11.993Z,102314.73
2022-12-01T00:02:12.699Z,102309.61
2022-12-01T00:03:13.360Z,102311.77
2022-12-01T00:04:13.246Z,102309.05
2022-12-01T00:05:13.666Z,102306.12
2022-12-01T00:06:19.229Z,102304.78
2022-12-01T00:07:17.758Z,102310.23
2022-12-01T00:08:17.766Z,102303.98
2022-12-01T00:09:20.228Z,102308.1
2022-12-01T00:10:19.014Z,102310.77
2022-12-01T00:11:19.131Z,102310.94
2022-12-01T00:12:19.555Z,102312.44
2022-12-01T00:13:19.953Z,102312.47
2022-12-01T00:14:20.367Z,102314.61
2022-12-01T00:15:21.400Z,102312.31
2022-12-01T00:16:21.147Z,102311.52
2022-12-01T00:17:22.338Z,102307.84
2022-12-01T00:18:21.654Z,102309.58
2022-12-01T00:19:26.134Z,102308.02
2022-12-01T00:20:24.297Z,102313.73
2022-12-01T00:21:27.068Z,102313.38
2022-12-01T00:22:25.040Z,102309.72
2022-12-01T00:23:25.336Z,102312.78
2022-12-01T00:24:26.068Z,102315.45
2022-12-01T00:25:26.580Z,102315.64
2022-12-01T00:26:27.513Z,102316.53
2022-12-01T00:27:27.113Z,102314.19
2022-12-01T00:28:27.624Z,102317.23
2022-12-01T00:29:27.836Z,102314.23
2022-12-01T00:30:28.257Z,102315.92
2022-12-01T00:31:28.752Z,102317.3
2022-12-01T00:32:31.447Z,102314.93
2022-12-01T00:33:29.504Z,102312.91
2022-12-01T00:34:29.853Z,102316.15
2022-12-01T00:35:30.644Z,102314.61
2022-12-01T00:36:30.958Z,102315.66
2022-12-01T00:37:31.781Z,102309.5
2022-12-01T00:38:32.443Z,102314.54
2022-12-01T00:39:32.205Z,102310.95
2022-12-01T00:40:32.431Z,102313.62
2022-12-01T00:41:32.926Z,102314.6
2022-12-01T00:42:33.464Z,102314.59
2022-12-01T00:43:33.794Z,102311.77
2022-12-01T00:44:34.097Z,102310.71
2022-12-01T00:45:34.358Z,102310.77
2022-12-01T00:46:34.726Z,102312.84
2022-12-01T00:47:35.329Z,102309.6
2022-12-01T00:48:35.415Z,102312.31
2022-12-01T00:49:36.163Z,102308.83
2022-12-01T00:50:36.576Z,102309.53
2022-12-01T00:51:37.005Z,102305.64
2022-12-01T00:52:37.413Z,102305.25
2022-12-01T00:53:37.828Z,102309.22
2022-12-01T00:54:38.348Z,102307.36
2022-12-01T00:55:38.675Z,102305.39
2022-12-01T00:56:38.975Z,102301.46
2022-12-01T00:57:39.293Z,102299.34
2022-12-01T00:58:40.518Z,102300.48
2022-12-01T00:59:40.830Z,102298.83
2022-12-01T01:00:41.252Z,102300.81
2022-12-01T01:01:41.730Z,102296
2022-12-01T01:02:42.246Z,102296.21
2022-12-01T01:03:42.595Z,102292.73
2022-12-01T01:04:43.026Z,102290.23
2022-12-01T01:05:44.155Z,102290.3
2022-12-01T01:06:43.545Z,102291.8
2022-12-01T01:07:44.246Z,102286.11
2022-12-01T01:08:44.496Z,102284.02
2022-12-01T01:09:44.803Z,102288.66
2022-12-01T01:10:47.154Z,102289.35
2022-12-01T01:11:45.956Z,102283.9
2022-12-01T01:12:46.049Z,102283.67
2022-12-01T01:13:46.660Z,102280.85
2022-12-01T01:14:47.093Z,102275.95
2022-12-01T01:15:56.514Z,102280.6
2022-12-01T01:16:49.736Z,102279.23
2022-12-01T01:17:49.871Z,102282.72
2022-12-01T01:18:50.483Z,102278.94
2022-12-01T01:19:51.031Z,102274.57
2022-12-01T01:21:54.706Z,102271.22
2022-12-01T01:22:55.061Z,102267.39
2022-12-01T01:23:55.964Z,102262.8
2022-12-01T01:24:55.865Z,102256.8
2022-12-01T01:26:02.827Z,102253.75
2022-12-01T01:27:00.974Z,102255.93
2022-12-01T01:28:01.503Z,102252.56
2022-12-01T01:29:04.572Z,102251.95
2022-12-01T01:30:02.738Z,102253.11
2022-12-01T01:31:10.102Z,102256.33
2022-12-01T01:32:03.388Z,102257.98
2022-12-01T01:33:03.475Z,102259.33
2022-12-01T01:34:03.911Z,102258.05
2022-12-01T01:35:04.835Z,102259.89
2022-12-01T01:36:06.064Z,102262.77
2022-12-01T01:37:05.165Z,102261.94
2022-12-01T01:38:05.504Z,102262.39
2022-12-01T01:39:05.888Z,102259.2
2022-12-01T01:40:08.243Z,102259.69
2022-12-01T01:41:07.523Z,102263.27
2022-12-01T01:42:07.435Z,102261.18
2022-12-01T01:48:19.140Z,102266.69
2022-12-01T01:49:19.225Z,102267.45
2022-12-01T01:52:25.256Z,102275.08
2022-12-01T01:53:25.472Z,102270.17
2022-12-01T01:56:32.423Z,102272.02
2022-12-01T01:57:34.473Z,102275.04
2022-12-01T01:58:34.155Z,102273.43
2022-12-01T02:00:38.698Z,102275.36
2022-12-01T02:01:36.955Z,102273.5
2022-12-01T02:02:39.442Z,102274.83
2022-12-01T02:03:40.444Z,102278.05
2022-12-01T02:05:40.356Z,102277.91
2022-12-01T02:06:39.222Z,102279.96
2022-12-01T02:07:40.710Z,102278.99
2022-12-01T02:08:39.963Z,102279.88
2022-12-01T02:09:40.275Z,102279.27
2022-12-01T02:34:35.931Z,102271.73
2022-12-01T02:41:54.514Z,102272.34
2022-12-01T02:44:52.484Z,102268.61
2022-12-01T02:48:02.739Z,102273.62
2022-12-01T02:50:05.424Z,102274.23
2022-12-01T02:52:08.715Z,102268.56
2022-12-01T02:53:11.065Z,102270.25
2022-12-01T02:54:10.266Z,102267.23
2022-12-01T02:55:09.785Z,102266.56
2022-12-01T02:57:14.167Z,102268
2022-12-01T02:58:14.695Z,102266.8
2022-12-01T02:59:15.131Z,102265.75
2022-12-01T03:00:15.735Z,102264.77
2022-12-01T03:16:54.432Z,102264.9
2022-12-01T03:25:14.942Z,102256.95
2022-12-01T03:26:18.660Z,102255.76
2022-12-01T03:30:29.027Z,102253.73
2022-12-01T03:36:52.224Z,102243.74
2022-12-01T03:38:59.806Z,102243.69
2022-12-01T03:40:00.544Z,102246.36
2022-12-01T03:41:02.787Z,102245.28
2022-12-01T03:42:07.292Z,102243.62
2022-12-01T03:43:10.275Z,102242.66
2022-12-01T03:45:20.844Z,102247.12
2022-12-01T03:46:26.045Z,102248.09
2022-12-01T03:48:14.404Z,102252.64
2022-12-01T03:49:17.595Z,102254.72
2022-12-01T03:50:17.185Z,102251.56
2022-12-01T03:54:26.323Z,102250.19
2022-12-01T03:56:23.675Z,102247.95
2022-12-01T03:58:33.935Z,102245.19
2022-12-01T03:59:29.954Z,102240.08
2022-12-01T04:00:29.023Z,102246.64
2022-12-01T04:01:31.879Z,102237.08
2022-12-01T04:02:30.257Z,102236.28
2022-12-01T04:03:30.471Z,102239.08
2022-12-01T04:04:30.792Z,102239.73
2022-12-01T04:05:32.844Z,102239.76
2022-12-01T04:06:31.622Z,102242.56
2022-12-01T04:07:32.179Z,102240.58
2022-12-01T04:08:32.364Z,102235.8
2022-12-01T04:09:32.764Z,102239.8
2022-12-01T04:10:33.181Z,102241.27
2022-12-01T04:11:33.502Z,102239
2022-12-01T04:12:34.835Z,102240.19
2022-12-01T04:13:34.432Z,102247.3
2022-12-01T04:14:34.742Z,102244.53
2022-12-01T04:15:35.266Z,102239.8
2022-12-01T04:16:35.761Z,102242.67
2022-12-01T04:17:36.514Z,102246.65
2022-12-01T04:18:36.305Z,102245.91
2022-12-01T04:19:36.823Z,102241.51
2022-12-01T04:20:37.134Z,102240.3
2022-12-01T04:21:37.448Z,102238.51
2022-12-01T04:22:38.072Z,102236.75
2022-12-01T04:23:38.284Z,102240.19
2022-12-01T04:24:38.813Z,102237.53
2022-12-01T04:25:38.924Z,102235.54
2022-12-01T04:26:39.542Z,102234.48
2022-12-01T04:27:40.151Z,102231.09
2022-12-01T04:28:40.261Z,102233.06
2022-12-01T04:29:42.120Z,102237.32
2022-12-01T04:30:40.995Z,102236.73
2022-12-01T04:31:41.846Z,102237.51
2022-12-01T04:32:43.872Z,102233.23
2022-12-01T04:33:42.455Z,102233.98
2022-12-01T04:34:42.857Z,102231.05
2022-12-01T04:35:43.114Z,102231.37
2022-12-01T04:36:43.594Z,102231.97
2022-12-01T04:37:44.118Z,102228.81
2022-12-01T04:38:44.351Z,102229.22
2022-12-01T04:39:44.943Z,102232.42
2022-12-01T04:40:45.050Z,102235.95
2022-12-01T04:41:45.472Z,102231.92
2022-12-01T04:42:45.886Z,102232.95
2022-12-01T04:43:46.105Z,102231.53
2022-12-01T04:44:46.611Z,102235.02
2022-12-01T04:45:46.936Z,102235.75
2022-12-01T04:46:47.542Z,102231.08
2022-12-01T04:47:47.873Z,102235.84
2022-12-01T04:48:48.286Z,102233.66
2022-12-01T04:49:49.100Z,102232.5
2022-12-01T04:50:50.248Z,102237.2
2022-12-01T04:51:49.846Z,102238.12
2022-12-01T04:52:49.854Z,102239.33
2022-12-01T04:53:52.920Z,102241.77
2022-12-01T04:54:50.926Z,102239.41
2022-12-01T04:55:51.406Z,102237.28
2022-12-01T04:56:51.711Z,102242.98
2022-12-01T04:57:52.840Z,102241.12
2022-12-01T04:58:52.571Z,102240.94
2022-12-01T04:59:52.852Z,102243.13
2022-12-01T05:00:53.450Z,102241.2
2022-12-01T05:01:53.777Z,102241.55
2022-12-01T05:02:54.205Z,102240.48
2022-12-01T05:03:54.629Z,102240.58
2022-12-01T05:04:54.949Z,102242.45
2022-12-01T05:06:57.823Z,102244.23
2022-12-01T05:07:59.839Z,102245.86
2022-12-01T05:09:00.702Z,102250.59
2022-12-01T05:09:58.757Z,102252.38
2022-12-01T05:10:59.496Z,102252.5
2022-12-01T05:11:59.897Z,102259.25
2022-12-01T05:13:00.414Z,102259.19
2022-12-01T05:14:01.056Z,102255.8
2022-12-01T05:15:00.948Z,102255.61
2022-12-01T05:17:01.465Z,102250.62
2022-12-01T05:18:02.001Z,102252.98
2022-12-01T05:19:05.573Z,102256.05
2022-12-01T05:20:03.945Z,102254.72
2022-12-01T05:21:06.204Z,102251.25
2022-12-01T05:22:04.269Z,102252.28
2022-12-01T05:23:06.255Z,102253.02
2022-12-01T05:24:05.709Z,102255.53
2022-12-01T05:25:06.048Z,102256.23
2022-12-01T05:26:08.283Z,102252.82
2022-12-01T05:27:06.241Z,102253.55
2022-12-01T05:28:06.660Z,102256.89
2022-12-01T05:29:07.078Z,102253.34
2022-12-01T05:30:08.543Z,102257.02
2022-12-01T05:31:07.947Z,102259.78
2022-12-01T05:32:08.326Z,102257.77
2022-12-01T05:33:08.744Z,102261.66
2022-12-01T05:34:09.263Z,102264.03
2022-12-01T05:35:09.993Z,102262.81
2022-12-01T05:36:10.304Z,102262.02
2022-12-01T05:37:10.709Z,102260.55
2022-12-01T05:38:10.745Z,102258.1
2022-12-01T05:39:10.937Z,102258.25
2022-12-01T05:40:12.574Z,102260.8
2022-12-01T05:41:12.172Z,102261.55
2022-12-01T05:42:12.283Z,102259.44
2022-12-01T05:43:12.502Z,102260.78
2022-12-01T05:44:12.807Z,102258.62
2022-12-01T05:45:13.333Z,102257.88
2022-12-01T05:46:14.257Z,102259.97
2022-12-01T05:47:14.362Z,102260.23
2022-12-01T05:48:14.577Z,102260.03
2022-12-01T05:49:14.887Z,102267.61
2022-12-01T05:50:15.628Z,102264.8
2022-12-01T05:51:17.253Z,102259.78
2022-12-01T05:52:16.237Z,102256.64
2022-12-01T05:53:17.405Z,102259.86
2022-12-01T05:54:16.661Z,102259.69
2022-12-01T05:55:17.691Z,102258.25
2022-12-01T05:56:17.705Z,102254
2022-12-01T05:57:18.218Z,102253.84
2022-12-01T05:58:18.463Z,102255.58
2022-12-01T05:59:18.741Z,102257.4
2022-12-01T06:00:20.282Z,102260.12
2022-12-01T06:01:19.784Z,102263.34
2022-12-01T06:02:20.338Z,102264.91
2022-12-01T06:03:20.415Z,102264.05
2022-12-01T06:04:21.169Z,102269.23
2022-12-01T06:05:21.640Z,102271.52
2022-12-01T06:06:21.657Z,102271.12
2022-12-01T06:07:22.665Z,102275.5
2022-12-01T06:08:22.595Z,102279.55
2022-12-01T06:09:23.007Z,102284.26
2022-12-01T06:10:23.222Z,102282.33
2022-12-01T06:11:23.645Z,102285.2
2022-12-01T06:12:24.048Z,102284.36
2022-12-01T06:13:24.574Z,102284.43
2022-12-01T06:14:24.915Z,102286.99
2022-12-01T06:15:25.337Z,102285.94
2022-12-01T06:16:25.988Z,102284.98
2022-12-01T06:17:26.032Z,102277.39
2022-12-01T06:18:28.101Z,102281.23
2022-12-01T06:19:26.970Z,102281.03
2022-12-01T06:20:27.696Z,102280.73
2022-12-01T06:21:27.596Z,102276.16
2022-12-01T06:22:28.003Z,102271.62
2022-12-01T06:23:30.550Z,102272.39
2022-12-01T06:24:28.843Z,102273.66
2022-12-01T06:25:29.049Z,102272.03
2022-12-01T06:26:29.778Z,102265.8
2022-12-01T06:27:30.088Z,102271.78
2022-12-01T06:28:30.512Z,102273.58
2022-12-01T06:29:30.723Z,102269.59
2022-12-01T06:30:33.543Z,102271.06
2022-12-01T06:31:31.913Z,102279.49
2022-12-01T06:32:32.713Z,102281.12
2022-12-01T06:33:33.015Z,102284.72
2022-12-01T06:34:33.011Z,102287.75
2022-12-01T06:35:33.323Z,102285.36
2022-12-01T06:36:33.744Z,102287.61
2022-12-01T06:37:34.054Z,102286.22
2022-12-01T06:38:36.610Z,102287.1
2022-12-01T06:39:34.898Z,102290.29
2022-12-01T06:40:35.299Z,102295.25
2022-12-01T06:41:35.607Z,102292.86
2022-12-01T06:42:36.029Z,102295.23
2022-12-01T06:43:37.668Z,102299.86
2022-12-01T06:44:36.866Z,102298.97
2022-12-01T06:45:37.330Z,102294.94
2022-12-01T06:46:37.744Z,102294.08
2022-12-01T06:47:38.615Z,102295.97
2022-12-01T06:48:38.518Z,102292.34
2022-12-01T06:49:38.843Z,102287.47
2022-12-01T06:50:39.145Z,102292.25
2022-12-01T06:51:40.185Z,102294.56
2022-12-01T06:52:40.189Z,102296.33
2022-12-01T06:53:40.504Z,102299.2
2022-12-01T06:54:40.713Z,102303.88
2022-12-01T06:55:41.032Z,102308.91
2022-12-01T06:56:42.672Z,102306.59
2022-12-01T06:57:42.670Z,102300.44
2022-12-01T06:58:43.095Z,102302.38
2022-12-01T06:59:43.506Z,102304.02
2022-12-01T07:00:48.981Z,102301.38
2022-12-01T07:01:44.714Z,102303.01
2022-12-01T07:02:45.144Z,102296.36
2022-12-01T07:03:49.784Z,102298.7
2022-12-01T07:04:47.739Z,102295.09
2022-12-01T07:06:51.967Z,102295.11
2022-12-01T07:07:57.886Z,102294.52
2022-12-01T07:08:57.438Z,102298.27
2022-12-01T07:09:57.614Z,102295.97
2022-12-01T07:11:00.077Z,102293.06
2022-12-01T07:11:58.469Z,102287.87
2022-12-01T07:12:59.276Z,102287.17
2022-12-01T07:13:59.680Z,102284.56
2022-12-01T07:14:59.599Z,102286.59
2022-12-01T07:16:00.310Z,102290.33
2022-12-01T07:17:00.505Z,102286.26
2022-12-01T07:18:00.625Z,102286.05
2022-12-01T07:19:01.258Z,102284.95
2022-12-01T07:20:01.587Z,102290.31
2022-12-01T07:21:03.212Z,102291.14
2022-12-01T07:22:02.306Z,102284.97
2022-12-01T07:23:02.613Z,102288.11
2022-12-01T07:24:03.026Z,102286.77
2022-12-01T07:25:03.453Z,102284.19
2022-12-01T07:26:10.614Z,102280.91
2022-12-01T07:27:08.773Z,102281.16
2022-12-01T07:28:09.194Z,102273.84
2022-12-01T07:29:10.646Z,102272.06
2022-12-01T07:30:10.637Z,102275.66
2022-12-01T07:31:15.943Z,102274.19
2022-12-01T07:32:13.835Z,102273.06
2022-12-01T07:33:14.261Z,102269.58
2022-12-01T07:34:14.757Z,102263.53
2022-12-01T07:35:15.295Z,102265.41
2022-12-01T07:36:15.803Z,102262.78
2022-12-01T07:37:15.915Z,102267.08
2022-12-01T07:38:21.803Z,102268.69
2022-12-01T07:39:20.118Z,102270.67
2022-12-01T07:40:20.753Z,102269.11
2022-12-01T07:41:20.846Z,102264.13
2022-12-01T07:42:21.376Z,102265.44
2022-12-01T07:43:21.794Z,102262.97
2022-12-01T07:44:22.105Z,102259.48
2022-12-01T07:45:22.419Z,102267.32
2022-12-01T07:46:25.677Z,102257.85
2022-12-01T07:47:23.747Z,102258.02
2022-12-01T07:48:23.972Z,102267.09
2022-12-01T07:49:24.421Z,102265.95
2022-12-01T07:50:24.900Z,102261.16
2022-12-01T07:51:26.452Z,102263.05
2022-12-01T07:52:25.833Z,102266.2
2022-12-01T07:53:26.360Z,102259.86
2022-12-01T07:54:26.262Z,102255.12
2022-12-01T07:55:26.892Z,102255.59
2022-12-01T07:56:27.292Z,102253.55
2022-12-01T07:57:27.446Z,102253.77
2022-12-01T07:58:28.432Z,102258.42
2022-12-01T07:59:28.540Z,102262.39
2022-12-01T08:00:28.753Z,102263.8
2022-12-01T08:01:29.143Z,102260.77
2022-12-01T08:02:29.650Z,102266.05
2022-12-01T08:03:29.812Z,102267.5
2022-12-01T08:04:30.434Z,102266.02
2022-12-01T08:05:30.754Z,102270.41
2022-12-01T08:06:31.273Z,102270.73
2022-12-01T08:07:31.531Z,102276.3
2022-12-01T08:08:33.729Z,102281.22
2022-12-01T08:09:32.304Z,102276.79
2022-12-01T08:10:32.504Z,102274.94
2022-12-01T08:11:32.925Z,102273.8
2022-12-01T08:12:33.441Z,102281.48
2022-12-01T08:13:34.177Z,102284.42
2022-12-01T08:14:34.284Z,102277.99
2022-12-01T08:15:34.433Z,102272.89
2022-12-01T08:16:35.106Z,102278.58
2022-12-01T08:17:35.227Z,102277.84
2022-12-01T08:18:36.965Z,102276.64
2022-12-01T08:19:36.372Z,102277.92
2022-12-01T08:20:36.464Z,102272.72
2022-12-01T08:21:36.886Z,102270.05
2022-12-01T08:22:37.234Z,102274.25
2022-12-01T08:23:37.617Z,102274.69
2022-12-01T08:24:38.037Z,102269.09
2022-12-01T08:25:38.342Z,102270.8
2022-12-01T08:26:38.865Z,102266.09
2022-12-01T08:27:39.089Z,102262.62
2022-12-01T08:28:43.274Z,102264.16
2022-12-01T08:29:41.035Z,102265.44
2022-12-01T08:30:41.717Z,102259.92
2022-12-01T08:31:42.313Z,102265.03
2022-12-01T08:32:42.386Z,102265.58
2022-12-01T08:33:42.795Z,102269.39
2022-12-01T08:34:43.216Z,102270.07
2022-12-01T08:35:43.636Z,102270.34
2022-12-01T08:36:43.940Z,102268.65
2022-12-01T08:37:44.053Z,102270.45
2022-12-01T08:38:46.023Z,102268.84
2022-12-01T08:39:45.195Z,102263.63
2022-12-01T08:40:45.512Z,102265.98
2022-12-01T08:41:46.024Z,102265.12
2022-12-01T08:42:46.454Z,102264.96
2022-12-01T08:43:57.921Z,102265.87
2022-12-01T08:44:51.852Z,102266
2022-12-01T08:45:51.984Z,102264.48
2022-12-01T08:46:52.661Z,102262.46
2022-12-01T08:47:54.582Z,102264.16
2022-12-01T08:48:54.174Z,102270.14
2022-12-01T08:49:53.552Z,102268.7
2022-12-01T08:51:02.266Z,102268.2
2022-12-01T08:51:55.215Z,102265
2022-12-01T08:52:55.513Z,102266.59
2022-12-01T08:53:57.559Z,102274.58
2022-12-01T08:54:56.146Z,102272.19
2022-12-01T08:55:59.225Z,102276.44
2022-12-01T08:56:57.294Z,102273.16
2022-12-01T08:57:58.031Z,102273.36
2022-12-01T08:58:57.915Z,102269.87
2022-12-01T08:59:58.229Z,102270.77
2022-12-01T09:01:07.257Z,102273.84
2022-12-01T09:02:05.378Z,102280.31
2022-12-01T09:03:04.894Z,102281.48
2022-12-01T09:04:05.868Z,102279.42
2022-12-01T09:05:06.354Z,102280.25
2022-12-01T09:07:11.379Z,102285.41
2022-12-01T09:08:09.281Z,102281.11
2022-12-01T09:09:12.015Z,102285.91
2022-12-01T09:10:11.004Z,102288.66
2022-12-01T09:11:16.630Z,102279.7
2022-12-01T09:12:14.496Z,102277.95
2022-12-01T09:13:14.906Z,102274.29
2022-12-01T09:14:17.275Z,102272.16
2022-12-01T09:15:15.940Z,102272.31
2022-12-01T09:16:17.286Z,102272.24
2022-12-01T09:17:17.999Z,102273.94
2022-12-01T09:18:16.787Z,102278.19
2022-12-01T09:19:23.965Z,102276.55
2022-12-01T09:20:18.018Z,102271.19
2022-12-01T09:21:22.220Z,102272.77
2022-12-01T09:22:20.194Z,102269.47
2022-12-01T09:23:20.597Z,102269.42
2022-12-01T09:24:21.434Z,102271.77
2022-12-01T09:25:21.431Z,102268.77
2022-12-01T09:26:21.948Z,102265.72
2022-12-01T09:27:22.065Z,102258.4
2022-12-01T09:28:22.677Z,102261.44
2022-12-01T09:29:22.685Z,102270.58
2022-12-01T09:30:23.100Z,102270.64
2022-12-01T09:31:24.310Z,102267.55
2022-12-01T09:32:24.262Z,102269.11
2022-12-01T09:33:24.575Z,102268.81
2022-12-01T09:34:25.393Z,102268.58
2022-12-01T09:35:25.280Z,102259.81
2022-12-01T09:36:26.322Z,102257.41
2022-12-01T09:37:25.913Z,102270.25
2022-12-01T09:38:26.753Z,102273.81
2022-12-01T09:39:26.858Z,102262.19
2022-12-01T09:40:32.502Z,102264.27
2022-12-01T09:42:35.553Z,102263.77
2022-12-01T09:45:44.312Z,102259.82
2022-12-01T09:46:53.702Z,102257.88
2022-12-01T09:47:46.855Z,102260.8
2022-12-01T09:48:50.199Z,102259.82
2022-12-01T09:50:50.249Z,102260.36
2022-12-01T09:51:53.342Z,102256.77
2022-12-01T09:52:55.093Z,102254.59
2022-12-01T09:54:58.794Z,102250.17
2022-12-01T09:56:04.866Z,102254.7
2022-12-01T09:57:00.368Z,102258.52
2022-12-01T09:58:02.914Z,102249.56
2022-12-01T09:59:05.269Z,102254.7
2022-12-01T10:01:05.035Z,102255.34
2022-12-01T10:06:32.477Z,102254.98
2022-12-01T10:13:34.334Z,102246.95
2022-12-01T10:14:36.404Z,102243
2022-12-01T10:26:00.423Z,102239.83
2022-12-01T10:30:13.167Z,102236.91
2022-12-01T10:31:20.072Z,102231.16
2022-12-01T10:32:18.091Z,102239.16
2022-12-01T10:34:18.642Z,102233.68
2022-12-01T10:35:18.219Z,102221.84
2022-12-01T10:36:17.086Z,102227.34
2022-12-01T10:37:25.072Z,102231.03
2022-12-01T10:38:28.983Z,102234.09
2022-12-01T10:39:31.340Z,102233.7
2022-12-01T10:40:25.100Z,102238.07
2022-12-01T10:41:28.486Z,102228.64
2022-12-01T10:42:35.964Z,102227.58
2022-12-01T10:44:33.425Z,102234.34
2022-12-01T10:45:37.899Z,102227.27
2022-12-01T10:46:46.130Z,102235.16
2022-12-01T10:47:39.166Z,102234.77
2022-12-01T10:49:42.254Z,102226.02
2022-12-01T10:50:48.813Z,102226.88
2022-12-01T10:52:49.761Z,102228.12
2022-12-01T10:53:50.990Z,102221.49
2022-12-01T10:54:50.891Z,102219.44
2022-12-01T10:55:57.726Z,102223.66
2022-12-01T10:56:56.857Z,102224.59
2022-12-01T10:58:06.213Z,102223.62
2022-12-01T10:59:00.461Z,102226.16
2022-12-01T11:01:04.040Z,102227.5
2022-12-01T11:02:03.502Z,102227.97
2022-12-01T11:03:03.624Z,102232.89
2022-12-01T11:05:08.260Z,102234.27
2022-12-01T11:06:08.168Z,102233.22
2022-12-01T11:07:07.053Z,102234.28
2022-12-01T11:08:07.811Z,102231.81
2022-12-01T11:12:19.164Z,102226.95
2022-12-01T11:14:25.624Z,102232.2
2022-12-01T11:15:27.279Z,102234.05
2022-12-01T11:19:35.123Z,102234.16
2022-12-01T11:20:40.255Z,102234.53
2022-12-01T11:21:33.455Z,102234.46
2022-12-01T11:22:33.675Z,102238.84
2022-12-01T11:23:45.459Z,102233.42
2022-12-01T11:25:39.419Z,102238.77
2022-12-01T11:26:39.840Z,102239.32
2022-12-01T11:29:48.820Z,102236.83
2022-12-01T11:30:49.280Z,102235.08
2022-12-01T11:31:51.794Z,102242.08
2022-12-01T11:32:56.357Z,102240.09
2022-12-01T11:33:56.999Z,102236.7
2022-12-01T11:35:00.108Z,102237.1
2022-12-01T11:35:58.456Z,102234.15
2022-12-01T11:37:03.757Z,102237.72
2022-12-01T11:38:28.968Z,102232.54
2022-12-01T11:39:02.759Z,102235.81
2022-12-01T11:41:05.742Z,102230.08
2022-12-01T11:43:08.210Z,102227.59
2022-12-01T11:46:16.458Z,102221.91
2022-12-01T11:47:24.175Z,102224.49
2022-12-01T11:48:29.433Z,102223.66
2022-12-01T11:49:30.370Z,102223.72
2022-12-01T11:50:28.734Z,102224.86
2022-12-01T11:51:34.998Z,102230.62
2022-12-01T11:52:33.972Z,102219.25
2022-12-01T11:53:37.357Z,102219.74
2022-12-01T11:54:35.423Z,102224.36
2022-12-01T11:55:35.731Z,102221.67
2022-12-01T11:56:36.481Z,102219.86
2022-12-01T11:57:36.559Z,102222.27
2022-12-01T11:58:36.986Z,102220.55
2022-12-01T11:59:37.294Z,102215.78
2022-12-01T12:46:14.605Z,102196.71
2022-12-01T12:56:33.781Z,102196.2
2022-12-01T13:02:53.889Z,102194.97
2022-12-01T13:05:05.578Z,102194.84
2022-12-01T13:15:21.520Z,102191.33
2022-12-01T13:16:26.408Z,102194.5
2022-12-01T13:17:33.091Z,102197.95
2022-12-01T13:19:32.794Z,102202.52
2022-12-01T13:20:31.272Z,102201.11
2022-12-01T13:23:38.351Z,102210
2022-12-01T13:24:36.420Z,102208.55
2022-12-01T13:26:41.853Z,102209.22
2022-12-01T13:27:42.989Z,102212.62
2022-12-01T13:31:51.618Z,102216.41
2022-12-01T13:32:50.398Z,102217.06
2022-12-01T13:33:59.730Z,102217.03
2022-12-01T13:34:53.070Z,102218.77
2022-12-01T13:36:22.519Z,102215.28
2022-12-01T13:36:57.980Z,102214.72
2022-12-01T13:43:22.619Z,102225.89
2022-12-01T13:45:20.482Z,102223.75
2022-12-01T13:46:23.853Z,102224.09
2022-12-01T13:52:35.786Z,102224.98
2022-12-01T13:53:38.354Z,102222.3
2022-12-01T13:54:37.234Z,102218.58
2022-12-01T14:00:53.577Z,102226.17
2022-12-01T14:11:27.833Z,102224.23
2022-12-01T14:12:20.781Z,102224.45
2022-12-01T14:13:19.944Z,102222.85
2022-12-01T14:14:26.234Z,102226.8
2022-12-01T14:15:33.485Z,102223.02
2022-12-01T14:16:22.089Z,102223.5
2022-12-01T14:20:31.889Z,102218.36
2022-12-01T14:22:43.074Z,102209.39
2022-12-01T14:23:39.373Z,102208.51
2022-12-01T14:25:42.154Z,102203.45
2022-12-01T14:26:46.052Z,102202.32
2022-12-01T14:27:44.608Z,102203.22
2022-12-01T14:29:49.025Z,102197.04
2022-12-01T14:35:03.918Z,102197.14
2022-12-01T14:36:02.313Z,102197.93
2022-12-01T14:38:07.619Z,102194.59
2022-12-01T14:41:19.638Z,102202.77
2022-12-01T14:43:17.990Z,102201.35
2022-12-01T14:46:26.851Z,102195.76
2022-12-01T14:51:36.890Z,102197.66
2022-12-01T14:52:38.850Z,102200.11
2022-12-01T14:53:40.791Z,102195.06
2022-12-01T14:54:47.648Z,102198.83
2022-12-01T14:55:46.742Z,102200.38
2022-12-01T14:56:48.182Z,102197.5
2022-12-01T14:58:57.512Z,102197.75
2022-12-01T15:01:05.746Z,102191.94
2022-12-01T15:01:57.676Z,102193.6
2022-12-01T15:03:08.191Z,102194.09
2022-12-01T15:03:59.805Z,102187.72
2022-12-01T15:06:02.385Z,102189.71
2022-12-01T15:07:03.094Z,102195.34
2022-12-01T15:10:06.910Z,102198.12
2022-12-01T15:11:11.241Z,102198.12
2022-12-01T15:13:26.488Z,102198.32
2022-12-01T15:15:25.675Z,102206.8
2022-12-01T15:16:21.686Z,102203.58
2022-12-01T15:21:32.679Z,102200.67
2022-12-01T15:22:34.232Z,102204.75
2022-12-01T15:23:32.499Z,102202.92
2022-12-01T15:24:32.932Z,102202.67
2022-12-01T15:25:34.450Z,102203.55
2022-12-01T15:26:36.805Z,102204.52
2022-12-01T15:27:34.682Z,102208.14
2022-12-01T15:28:36.624Z,102203.53
2022-12-01T15:29:44.295Z,102202.5
2022-12-01T15:30:38.060Z,102201.73
2022-12-01T15:31:37.923Z,102198.62
2022-12-01T15:32:39.510Z,102198.69
2022-12-01T15:33:44.470Z,102196.39
2022-12-01T15:34:45.570Z,102197.48
2022-12-01T15:35:43.827Z,102200.88
2022-12-01T15:36:45.377Z,102198.48
2022-12-01T15:37:45.902Z,102196.03
2022-12-01T15:38:47.642Z,102201.34
2022-12-01T15:39:53.169Z,102195.28
2022-12-01T15:43:18.586Z,102188.55
2022-12-01T15:46:17.045Z,102185.64
2022-12-01T15:51:27.762Z,102191.5
2022-12-01T15:52:26.044Z,102189.84
2022-12-01T15:53:30.528Z,102188.79
2022-12-01T15:54:28.499Z,102190.26
2022-12-01T15:55:34.131Z,102190.38
2022-12-01T15:56:36.186Z,102187.72
2022-12-01T15:57:35.687Z,102188.12
2022-12-01T15:58:41.832Z,102192.02
2022-12-01T15:59:41.434Z,102192.09
2022-12-01T16:00:39.589Z,102189.88
2022-12-01T16:01:43.080Z,102193.47
2022-12-01T16:02:40.994Z,102192.7
2022-12-01T16:04:44.613Z,102193.73
2022-12-01T16:05:45.355Z,102191.91
2022-12-01T16:09:58.330Z,102188.42
2022-12-01T16:15:15.628Z,102192.34
2022-12-01T16:17:11.554Z,102196.44
2022-12-01T16:21:17.612Z,102190.14
2022-12-01T16:26:27.577Z,102187.48
2022-12-01T16:27:30.452Z,102189.42
2022-12-01T16:28:36.107Z,102188.45
2022-12-01T16:29:37.632Z,102187.08
2022-12-01T16:31:33.036Z,102185.89
2022-12-01T16:33:39.320Z,102189.83
2022-12-01T16:34:46.311Z,102189.02
2022-12-01T16:35:39.822Z,102189.77
2022-12-01T16:36:40.240Z,102190.95
2022-12-01T16:37:40.661Z,102195.48
2022-12-01T16:38:41.384Z,102195.72
2022-12-01T16:39:41.391Z,102196.43
2022-12-01T16:40:43.745Z,102195.78
2022-12-01T16:41:43.393Z,102196.02
2022-12-01T16:42:43.240Z,102193.05
2022-12-01T16:43:54.495Z,102189.29